Vb Andalucia — ECFI — position and weather

sailwx.info

Track history (hours):
 
Tides and Currents Weather Stations Pressure Air Temp Water Temp Dewpoint Dewpoint Depression Visibility Wind Speed Wind Dir Waves Ship Positions

Vb Andalucia

Last reported at 2017-Aug-16 01:06 UTC. Time now 2017-Aug-17 09:49 UTC.
Position N 36°08' W 005°26'.

Type: Tug. MMSI: 224117450.

Date/timePositionNaut miles runAvg speedWind from/ knotsBaromVisibWave heightAir tempDewpointWater temp
2017-Aug-16 01:06N 36°08' W 005°26'0 0.0
2017-Aug-15 00:07N 36°08' W 005°25'0 0.0
2017-Aug-14 04:38N 36°08' W 005°25'0 0.1
2017-Aug-14 01:30N 36°08' W 005°25'0 0.0
2017-Aug-13 12:50N 36°08' W 005°25'0 0.1
2017-Aug-13 09:22N 36°08' W 005°25'0 0.3
2017-Aug-13 08:26N 36°08' W 005°25'0 0.0
2017-Aug-13 01:07N 36°08' W 005°25'0 0.1
2017-Aug-13 01:01N 36°08' W 005°25'0 0.0
2017-Aug-12 23:53N 36°08' W 005°25'0 0.0
2017-Aug-12 18:10N 36°08' W 005°25'0 0.0
2017-Aug-12 18:00N 36°08' W 005°25'0 0.0
2017-Aug-12 17:04N 36°08' W 005°25'0 0.3
2017-Aug-12 16:04N 36°08' W 005°25'0 0.1
2017-Aug-12 15:11N 36°08' W 005°25'0 0.2
2017-Aug-12 14:53N 36°08' W 005°25'0 0.0
2017-Aug-12 09:06N 36°08' W 005°25'0 1.6
2017-Aug-12 09:01N 36°08' W 005°25'0 0.1
2017-Aug-12 06:47N 36°08' W 005°25'0 0.0
2017-Aug-11 03:39N 36°08' W 005°25'0 0.0
2017-Aug-11 02:39N 36°08' W 005°25'0 0.4
2017-Aug-11 02:30N 36°08' W 005°25'0 0.0
2017-Aug-10 20:10N 36°08' W 005°25'0 0.8
2017-Aug-10 20:00N 36°08' W 005°25'1 0.1
2017-Aug-10 08:37N 36°08' W 005°24'2 4.5
2017-Aug-10 08:08N 36°10' W 005°23'0 0.1
2017-Aug-10 07:58N 36°10' W 005°23'0 0.2
2017-Aug-10 07:20N 36°10' W 005°23'3 5.5
2017-Aug-10 06:51N 36°09' W 005°26'0 0.0
2017-Aug-09 18:32N 36°09' W 005°26'1 4.5
2017-Aug-09 18:21N 36°08' W 005°26'1 1.6
2017-Aug-09 17:54N 36°09' W 005°26'1 1.4
2017-Aug-09 17:18N 36°09' W 005°25'1 3.4
2017-Aug-09 16:57N 36°08' W 005°26'0 0.2
2017-Aug-09 15:39N 36°08' W 005°26'0 0.0
2017-Aug-09 00:43N 36°08' W 005°26'0 0.0
2017-Aug-09 00:30N 36°08' W 005°26'0 0.0
2017-Aug-09 00:00N 36°08' W 005°26'0 0.0
2017-Aug-08 23:29N 36°08' W 005°26'0 0.0
2017-Aug-08 22:32N 36°08' W 005°26'0 0.0
2017-Aug-08 22:29N 36°08' W 005°26'0 0.0
2017-Aug-08 22:00N 36°08' W 005°26'0 0.0
2017-Aug-08 21:31N 36°08' W 005°26'0 0.0
2017-Aug-08 21:01N 36°08' W 005°26'0 0.0
2017-Aug-08 20:27N 36°08' W 005°26'0 0.0
2017-Aug-08 19:37N 36°08' W 005°26'0 0.0
2017-Aug-08 19:30N 36°08' W 005°26'0 0.0
2017-Aug-08 18:53N 36°08' W 005°26'0 0.0
2017-Aug-08 18:10N 36°08' W 005°26'0 0.6
2017-Aug-08 17:56N 36°08' W 005°26'1 1.8
2017-Aug-08 17:29N 36°09' W 005°26'0 0.0
2017-Aug-08 17:00N 36°09' W 005°26'1 1.5
2017-Aug-08 16:30N 36°08' W 005°26'0 0.5
2017-Aug-08 16:00N 36°08' W 005°26'1 2.1
2017-Aug-08 15:31N 36°09' W 005°26'0 0.0
2017-Aug-08 15:00N 36°09' W 005°26'0 0.0
2017-Aug-08 14:31N 36°09' W 005°26'0 0.0
2017-Aug-08 14:00N 36°09' W 005°26'0 0.0
2017-Aug-08 13:30N 36°09' W 005°26'0 0.8
2017-Aug-08 13:00N 36°09' W 005°26'0 0.8
2017-Aug-08 12:31N 36°09' W 005°26'0 0.0
2017-Aug-08 12:00N 36°09' W 005°26'0 0.0
2017-Aug-08 11:30N 36°09' W 005°26'0 0.0
2017-Aug-08 10:58N 36°09' W 005°26'0 0.0
2017-Aug-08 10:30N 36°09' W 005°26'0 0.0
2017-Aug-08 10:01N 36°09' W 005°26'1 1.4
2017-Aug-08 09:30N 36°08' W 005°26'1 1.4
2017-Aug-08 09:01N 36°09' W 005°26'1 1.1
2017-Aug-08 08:30N 36°08' W 005°26'1 2.5
2017-Aug-08 08:00N 36°09' W 005°25'1 1.2
2017-Aug-08 07:20N 36°09' W 005°26'0 0.2
2017-Aug-08 06:59N 36°09' W 005°26'1 0.9
2017-Aug-08 06:14N 36°08' W 005°26'0 0.0
2017-Aug-08 06:00N 36°08' W 005°26'0 0.0
2017-Aug-08 05:30N 36°08' W 005°26'0 0.0
2017-Aug-08 04:53N 36°08' W 005°26'0 0.0
2017-Aug-08 04:10N 36°08' W 005°26'0 0.0
2017-Aug-08 03:59N 36°08' W 005°26'0 0.0
2017-Aug-08 03:30N 36°08' W 005°26'0 0.0
2017-Aug-08 03:00N 36°08' W 005°26'0 0.0
2017-Aug-08 02:30N 36°08' W 005°26'1 1.5
2017-Aug-08 01:43N 36°09' W 005°25'1 2.2
2017-Aug-08 01:05N 36°08' W 005°26'0 0.1
2017-Aug-08 01:00N 36°08' W 005°26'0 0.4
2017-Aug-08 00:31N 36°08' W 005°26'1 2.7
2017-Aug-08 00:00N 36°09' W 005°24'1 2.6
2017-Aug-07 23:31N 36°08' W 005°26'0 0.0
2017-Aug-07 22:44N 36°08' W 005°26'0 0.0
2017-Aug-07 22:27N 36°08' W 005°26'0 0.0
2017-Aug-07 22:00N 36°08' W 005°26'0 0.0
2017-Aug-07 21:29N 36°08' W 005°26'1 2.3
2017-Aug-07 20:58N 36°08' W 005°24'0 0.3
2017-Aug-07 20:26N 36°07' W 005°24'2 1.6
2017-Aug-07 19:29N 36°08' W 005°26'0 0.2
2017-Aug-07 18:55N 36°08' W 005°26'0 0.5
2017-Aug-07 18:30N 36°08' W 005°26'0 0.2
2017-Aug-07 16:33N 36°08' W 005°26'1 4.4
2017-Aug-07 16:25N 36°09' W 005°26'1 2.0
2017-Aug-07 15:58N 36°08' W 005°25'0 0.7
2017-Aug-07 15:23N 36°08' W 005°25'1 0.1
2017-Aug-07 07:10N 36°08' W 005°25'1 0.6
2017-Aug-07 05:00N 36°09' W 005°26'0 0.0
2017-Aug-07 00:17N 36°09' W 005°26'1 0.1
2017-Aug-06 15:45N 36°08' W 005°26'0 0.0
2017-Aug-06 07:44N 36°08' W 005°26'0 0.0
2017-Aug-06 07:31N 36°08' W 005°26'0 0.0
2017-Aug-06 07:00N 36°08' W 005°26'0 0.0
2017-Aug-06 06:30N 36°08' W 005°26'0 0.7
2017-Aug-06 06:00N 36°08' W 005°26'1 2.0
2017-Aug-06 05:30N 36°09' W 005°25'1 1.4
2017-Aug-06 04:42N 36°08' W 005°26'0 0.0
2017-Aug-06 04:02N 36°08' W 005°26'0 0.0
2017-Aug-06 02:57N 36°08' W 005°26'0 0.0
2017-Aug-06 02:30N 36°08' W 005°26'0 0.0
2017-Aug-06 02:00N 36°08' W 005°26'0 0.0
2017-Aug-06 01:30N 36°08' W 005°26'  
Track history (hours):
 
Tides and Currents Weather Stations Pressure Air Temp Water Temp Dewpoint Dewpoint Depression Visibility Wind Speed Wind Dir Waves Ship Positions

Vb Andalucia

Last reported at 2017-Aug-16 01:06 UTC. Time now 2017-Aug-17 09:49 UTC.
Position N 36°08' W 005°26'.

Type: Tug. MMSI: 224117450.

Date/timePositionNaut miles runAvg speedWind from/ knotsBaromVisibWave heightAir tempDewpointWater temp
2017-Aug-16 01:06N 36°08' W 005°26'0 0.0
2017-Aug-15 00:07N 36°08' W 005°25'0 0.0
2017-Aug-14 04:38N 36°08' W 005°25'0 0.1
2017-Aug-14 01:30N 36°08' W 005°25'0 0.0
2017-Aug-13 12:50N 36°08' W 005°25'0 0.1
2017-Aug-13 09:22N 36°08' W 005°25'0 0.3
2017-Aug-13 08:26N 36°08' W 005°25'0 0.0
2017-Aug-13 01:07N 36°08' W 005°25'0 0.1
2017-Aug-13 01:01N 36°08' W 005°25'0 0.0
2017-Aug-12 23:53N 36°08' W 005°25'0 0.0
2017-Aug-12 18:10N 36°08' W 005°25'0 0.0
2017-Aug-12 18:00N 36°08' W 005°25'0 0.0
2017-Aug-12 17:04N 36°08' W 005°25'0 0.3
2017-Aug-12 16:04N 36°08' W 005°25'0 0.1
2017-Aug-12 15:11N 36°08' W 005°25'0 0.2
2017-Aug-12 14:53N 36°08' W 005°25'0 0.0
2017-Aug-12 09:06N 36°08' W 005°25'0 1.6
2017-Aug-12 09:01N 36°08' W 005°25'0 0.1
2017-Aug-12 06:47N 36°08' W 005°25'0 0.0
2017-Aug-11 03:39N 36°08' W 005°25'0 0.0
2017-Aug-11 02:39N 36°08' W 005°25'0 0.4
2017-Aug-11 02:30N 36°08' W 005°25'0 0.0
2017-Aug-10 20:10N 36°08' W 005°25'0 0.8
2017-Aug-10 20:00N 36°08' W 005°25'1 0.1
2017-Aug-10 08:37N 36°08' W 005°24'2 4.5
2017-Aug-10 08:08N 36°10' W 005°23'0 0.1
2017-Aug-10 07:58N 36°10' W 005°23'0 0.2
2017-Aug-10 07:20N 36°10' W 005°23'3 5.5
2017-Aug-10 06:51N 36°09' W 005°26'0 0.0
2017-Aug-09 18:32N 36°09' W 005°26'1 4.5
2017-Aug-09 18:21N 36°08' W 005°26'1 1.6
2017-Aug-09 17:54N 36°09' W 005°26'1 1.4
2017-Aug-09 17:18N 36°09' W 005°25'1 3.4
2017-Aug-09 16:57N 36°08' W 005°26'0 0.2
2017-Aug-09 15:39N 36°08' W 005°26'0 0.0
2017-Aug-09 00:43N 36°08' W 005°26'0 0.0
2017-Aug-09 00:30N 36°08' W 005°26'0 0.0
2017-Aug-09 00:00N 36°08' W 005°26'0 0.0
2017-Aug-08 23:29N 36°08' W 005°26'0 0.0
2017-Aug-08 22:32N 36°08' W 005°26'0 0.0
2017-Aug-08 22:29N 36°08' W 005°26'0 0.0
2017-Aug-08 22:00N 36°08' W 005°26'0 0.0
2017-Aug-08 21:31N 36°08' W 005°26'0 0.0
2017-Aug-08 21:01N 36°08' W 005°26'0 0.0
2017-Aug-08 20:27N 36°08' W 005°26'0 0.0
2017-Aug-08 19:37N 36°08' W 005°26'0 0.0
2017-Aug-08 19:30N 36°08' W 005°26'0 0.0
2017-Aug-08 18:53N 36°08' W 005°26'0 0.0
2017-Aug-08 18:10N 36°08' W 005°26'0 0.6
2017-Aug-08 17:56N 36°08' W 005°26'1 1.8
2017-Aug-08 17:29N 36°09' W 005°26'0 0.0
2017-Aug-08 17:00N 36°09' W 005°26'1 1.5
2017-Aug-08 16:30N 36°08' W 005°26'0 0.5
2017-Aug-08 16:00N 36°08' W 005°26'1 2.1
2017-Aug-08 15:31N 36°09' W 005°26'0 0.0
2017-Aug-08 15:00N 36°09' W 005°26'0 0.0
2017-Aug-08 14:31N 36°09' W 005°26'0 0.0
2017-Aug-08 14:00N 36°09' W 005°26'0 0.0
2017-Aug-08 13:30N 36°09' W 005°26'0 0.8
2017-Aug-08 13:00N 36°09' W 005°26'0 0.8
2017-Aug-08 12:31N 36°09' W 005°26'0 0.0
2017-Aug-08 12:00N 36°09' W 005°26'0 0.0
2017-Aug-08 11:30N 36°09' W 005°26'0 0.0
2017-Aug-08 10:58N 36°09' W 005°26'0 0.0
2017-Aug-08 10:30N 36°09' W 005°26'0 0.0
2017-Aug-08 10:01N 36°09' W 005°26'1 1.4
2017-Aug-08 09:30N 36°08' W 005°26'1 1.4
2017-Aug-08 09:01N 36°09' W 005°26'1 1.1
2017-Aug-08 08:30N 36°08' W 005°26'1 2.5
2017-Aug-08 08:00N 36°09' W 005°25'1 1.2
2017-Aug-08 07:20N 36°09' W 005°26'0 0.2
2017-Aug-08 06:59N 36°09' W 005°26'1 0.9
2017-Aug-08 06:14N 36°08' W 005°26'0 0.0
2017-Aug-08 06:00N 36°08' W 005°26'0 0.0
2017-Aug-08 05:30N 36°08' W 005°26'0 0.0
2017-Aug-08 04:53N 36°08' W 005°26'0 0.0
2017-Aug-08 04:10N 36°08' W 005°26'0 0.0
2017-Aug-08 03:59N 36°08' W 005°26'0 0.0
2017-Aug-08 03:30N 36°08' W 005°26'0 0.0
2017-Aug-08 03:00N 36°08' W 005°26'0 0.0
2017-Aug-08 02:30N 36°08' W 005°26'1 1.5
2017-Aug-08 01:43N 36°09' W 005°25'1 2.2
2017-Aug-08 01:05N 36°08' W 005°26'0 0.1
2017-Aug-08 01:00N 36°08' W 005°26'0 0.4
2017-Aug-08 00:31N 36°08' W 005°26'1 2.7
2017-Aug-08 00:00N 36°09' W 005°24'1 2.6
2017-Aug-07 23:31N 36°08' W 005°26'0 0.0
2017-Aug-07 22:44N 36°08' W 005°26'0 0.0
2017-Aug-07 22:27N 36°08' W 005°26'0 0.0
2017-Aug-07 22:00N 36°08' W 005°26'0 0.0
2017-Aug-07 21:29N 36°08' W 005°26'1 2.3
2017-Aug-07 20:58N 36°08' W 005°24'0 0.3
2017-Aug-07 20:26N 36°07' W 005°24'2 1.6
2017-Aug-07 19:29N 36°08' W 005°26'0 0.2
2017-Aug-07 18:55N 36°08' W 005°26'0 0.5
2017-Aug-07 18:30N 36°08' W 005°26'0 0.2
2017-Aug-07 16:33N 36°08' W 005°26'1 4.4
2017-Aug-07 16:25N 36°09' W 005°26'1 2.0
2017-Aug-07 15:58N 36°08' W 005°25'0 0.7
2017-Aug-07 15:23N 36°08' W 005°25'1 0.1
2017-Aug-07 07:10N 36°08' W 005°25'1 0.6
2017-Aug-07 05:00N 36°09' W 005°26'0 0.0
2017-Aug-07 00:17N 36°09' W 005°26'1 0.1
2017-Aug-06 15:45N 36°08' W 005°26'0 0.0
2017-Aug-06 07:44N 36°08' W 005°26'0 0.0
2017-Aug-06 07:31N 36°08' W 005°26'0 0.0
2017-Aug-06 07:00N 36°08' W 005°26'0 0.0
2017-Aug-06 06:30N 36°08' W 005°26'0 0.7
2017-Aug-06 06:00N 36°08' W 005°26'1 2.0
2017-Aug-06 05:30N 36°09' W 005°25'1 1.4
2017-Aug-06 04:42N 36°08' W 005°26'0 0.0
2017-Aug-06 04:02N 36°08' W 005°26'0 0.0
2017-Aug-06 02:57N 36°08' W 005°26'0 0.0
2017-Aug-06 02:30N 36°08' W 005°26'0 0.0
2017-Aug-06 02:00N 36°08' W 005°26'0 0.0
2017-Aug-06 01:30N 36°08' W 005°26'  

Dump ship's entire track history